createdAt,value
2022-08-01T00:00:48.473Z,71.88
2022-08-01T00:04:49.878Z,71.93
2022-08-01T00:08:51.398Z,72.09
2022-08-01T00:12:52.989Z,72.52
2022-08-01T00:16:54.436Z,73.32
2022-08-01T00:20:55.898Z,73.43
2022-08-01T00:24:57.409Z,73.50
2022-08-01T00:28:58.858Z,73.75
2022-08-01T00:33:00.327Z,73.95
2022-08-01T00:37:01.840Z,74.15
2022-08-01T00:41:03.514Z,75.03
2022-08-01T00:45:05.630Z,74.70
2022-08-01T00:49:07.257Z,75.55
2022-08-01T00:53:18.898Z,75.74
2022-08-01T00:57:39.972Z,76.19
2022-08-01T01:01:46.820Z,75.98
2022-08-01T01:06:14.049Z,76.61
2022-08-01T01:10:49.073Z,76.37
2022-08-01T01:15:16.647Z,76.65
2022-08-01T01:19:24.389Z,76.74
2022-08-01T01:23:55.509Z,76.82
2022-08-01T01:28:09.382Z,77.42
2022-08-01T01:32:15.481Z,76.92
2022-08-01T01:36:20.295Z,78.00
2022-08-01T01:40:24.762Z,77.19
2022-08-01T01:44:28.598Z,77.34
2022-08-01T01:48:30.281Z,77.10
2022-08-01T01:52:33.029Z,76.78
2022-08-01T01:56:36.193Z,77.36
2022-08-01T02:00:38.310Z,77.21
2022-08-01T02:04:43.509Z,77.58
2022-08-01T02:08:47.160Z,78.17
2022-08-01T02:12:51.190Z,78.23
2022-08-01T02:16:52.586Z,78.07
2022-08-01T02:20:56.673Z,78.66
2022-08-01T02:25:10.805Z,78.60
2022-08-01T02:29:19.180Z,78.45
2022-08-01T02:33:35.618Z,78.72
2022-08-01T02:37:41.899Z,79.06
2022-08-01T02:41:50.437Z,79.95
2022-08-01T02:45:55.085Z,80.34
2022-08-01T02:49:57.356Z,80.35
2022-08-01T02:53:59.956Z,80.49
2022-08-01T02:58:02.774Z,80.04
2022-08-01T03:02:06.144Z,80.44
2022-08-01T03:06:10.701Z,80.53
2022-08-01T03:10:14.017Z,80.48
2022-08-01T03:14:16.856Z,80.88
2022-08-01T03:18:19.358Z,80.88
2022-08-01T03:22:24.080Z,80.98
2022-08-01T03:26:29.644Z,81.17
2022-08-01T03:30:33.472Z,82.47
2022-08-01T03:34:35.399Z,83.19
2022-08-01T03:38:40.006Z,83.31
2022-08-01T03:42:51.206Z,83.06
2022-08-01T03:47:01.817Z,82.73
2022-08-01T03:51:04.905Z,83.07
2022-08-01T03:55:08.445Z,82.53
2022-08-01T03:59:10.611Z,82.48
2022-08-01T04:03:13.594Z,82.36
2022-08-01T04:07:32.000Z,82.74
2022-08-01T04:11:34.176Z,82.65
2022-08-01T04:15:35.784Z,83.30
2022-08-01T04:19:37.836Z,83.00
2022-08-01T04:23:42.701Z,82.50
2022-08-01T04:27:49.863Z,82.90
2022-08-01T04:31:55.461Z,83.45
2022-08-01T04:36:03.792Z,83.79
2022-08-01T04:40:08.149Z,84.09
2022-08-01T04:44:10.021Z,84.54
2022-08-01T04:48:12.209Z,84.67
2022-08-01T04:52:18.862Z,84.65
2022-08-01T04:56:23.771Z,84.63
2022-08-01T05:00:25.427Z,83.74
2022-08-01T05:04:27.183Z,83.36
2022-08-01T05:08:28.628Z,81.69
2022-08-01T05:12:30.234Z,81.00
2022-08-01T05:16:34.269Z,79.27
2022-08-01T05:20:36.005Z,77.94
2022-08-01T05:24:40.304Z,76.66
2022-08-01T05:28:43.378Z,76.15
2022-08-01T05:32:44.925Z,76.43
2022-08-01T05:36:47.332Z,76.13
2022-08-01T05:40:48.965Z,76.38
2022-08-01T05:44:52.136Z,75.92
2022-08-01T05:48:53.697Z,75.71
2022-08-01T05:52:55.242Z,75.35
2022-08-01T05:57:00.495Z,75.02
2022-08-01T06:01:02.697Z,74.74
2022-08-01T06:05:04.416Z,75.26
2022-08-01T06:09:05.808Z,74.82
2022-08-01T06:13:07.257Z,74.95
2022-08-01T06:17:08.732Z,74.69
2022-08-01T06:21:10.228Z,74.31
2022-08-01T06:25:11.622Z,74.09
2022-08-01T06:29:14.063Z,73.71
2022-08-01T06:33:15.466Z,73.00
2022-08-01T06:37:17.150Z,70.90
2022-08-01T06:41:18.903Z,67.72
2022-08-01T06:45:23.221Z,66.70
2022-08-01T06:49:25.361Z,66.16
2022-08-01T06:53:27.024Z,65.07
2022-08-01T06:57:28.555Z,64.80
2022-08-01T07:01:30.774Z,62.67
2022-08-01T07:05:36.577Z,59.55
2022-08-01T07:09:38.289Z,57.66
2022-08-01T07:13:45.687Z,57.83
2022-08-01T07:17:47.276Z,58.14
2022-08-01T07:21:50.033Z,57.62
2022-08-01T07:25:55.944Z,55.50
2022-08-01T07:29:59.580Z,55.44
2022-08-01T07:34:01.424Z,54.88
2022-08-01T07:38:02.797Z,55.31
2022-08-01T07:42:07.218Z,54.87
2022-08-01T07:46:09.978Z,56.05
2022-08-01T07:50:13.387Z,53.62
2022-08-01T07:54:15.081Z,54.83
2022-08-01T07:58:16.912Z,54.86
2022-08-01T08:02:18.560Z,56.36
2022-08-01T08:06:19.989Z,56.33
2022-08-01T08:10:21.468Z,56.00
2022-08-01T08:14:25.681Z,56.67
2022-08-01T08:18:34.469Z,56.63
2022-08-01T08:22:36.903Z,56.76
2022-08-01T08:26:38.759Z,56.80
2022-08-01T08:30:41.806Z,57.16
2022-08-01T08:34:43.781Z,57.30
2022-08-01T08:38:45.263Z,57.83
2022-08-01T08:42:48.503Z,58.11
2022-08-01T08:46:52.262Z,58.37
2022-08-01T08:50:54.321Z,58.42
2022-08-01T08:54:57.412Z,57.23
2022-08-01T08:58:59.245Z,57.07
2022-08-01T09:03:00.702Z,56.51
2022-08-01T09:07:04.974Z,55.71
2022-08-01T09:11:06.670Z,55.16
2022-08-01T09:15:08.514Z,54.45
2022-08-01T09:19:15.924Z,54.75
2022-08-01T09:23:54.090Z,54.06
2022-08-01T09:28:04.423Z,54.40
2022-08-01T09:32:07.381Z,53.19
2022-08-01T09:36:09.229Z,53.50
2022-08-01T09:40:14.767Z,52.78
2022-08-01T09:44:18.690Z,52.99
2022-08-01T09:48:55.341Z,51.45
2022-08-01T09:52:58.021Z,50.38
2022-08-01T09:57:16.176Z,48.67
2022-08-01T10:01:17.565Z,48.85
2022-08-01T10:05:21.350Z,48.58
2022-08-01T10:09:35.996Z,48.67
2022-08-01T10:13:41.841Z,47.19
2022-08-01T10:17:54.557Z,47.91
2022-08-01T10:22:00.209Z,48.81
2022-08-01T10:26:02.902Z,47.77
2022-08-01T10:30:19.983Z,47.49
2022-08-01T10:34:24.766Z,46.22
2022-08-01T10:38:28.222Z,44.54
2022-08-01T10:42:30.280Z,44.07
2022-08-01T10:46:32.076Z,42.69
2022-08-01T10:50:39.429Z,42.62
2022-08-01T10:54:52.245Z,41.91
2022-08-01T10:59:06.141Z,42.53
2022-08-01T11:03:12.813Z,42.88
2022-08-01T11:07:21.953Z,43.98
2022-08-01T11:11:27.365Z,44.15
2022-08-01T11:15:31.065Z,43.79
2022-08-01T11:20:09.649Z,44.24
2022-08-01T11:24:11.158Z,43.01
2022-08-01T11:28:15.588Z,43.39
2022-08-01T11:32:27.086Z,43.95
2022-08-01T11:36:55.956Z,43.35
2022-08-01T11:41:10.220Z,44.76
2022-08-01T11:45:18.105Z,44.64
2022-08-01T11:49:35.201Z,44.75
2022-08-01T11:53:47.318Z,42.52
2022-08-01T11:57:49.481Z,44.08
2022-08-01T12:01:51.239Z,43.02
2022-08-01T12:05:53.269Z,42.55
2022-08-01T12:09:59.370Z,42.40
2022-08-01T12:14:02.874Z,42.22
2022-08-01T12:18:06.990Z,41.92
2022-08-01T12:22:15.557Z,42.52
2022-08-01T12:26:29.153Z,42.33
2022-08-01T12:30:37.938Z,42.11
2022-08-01T12:34:39.784Z,41.28
2022-08-01T12:38:41.301Z,41.56
2022-08-01T12:42:44.768Z,41.54
2022-08-01T12:46:46.474Z,42.32
2022-08-01T12:50:53.301Z,41.92
2022-08-01T12:55:14.422Z,42.53
2022-08-01T12:59:23.821Z,42.54
2022-08-01T13:03:25.273Z,43.40
2022-08-01T13:07:46.029Z,43.82
2022-08-01T13:12:03.878Z,43.52
2022-08-01T13:16:08.586Z,43.35
2022-08-01T13:20:34.862Z,42.37
2022-08-01T13:24:36.313Z,40.95
2022-08-01T13:28:39.276Z,41.73
2022-08-01T13:32:41.661Z,42.69
2022-08-01T13:36:49.026Z,43.58
2022-08-01T13:40:59.230Z,43.68
2022-08-01T13:45:03.030Z,43.73
2022-08-01T13:49:15.946Z,43.30
2022-08-01T13:53:18.635Z,44.20
2022-08-01T13:57:20.150Z,44.30
2022-08-01T14:01:21.878Z,44.28
2022-08-01T14:05:23.367Z,44.09
2022-08-01T14:09:25.032Z,44.56
2022-08-01T14:13:36.981Z,44.54
2022-08-01T14:17:38.591Z,45.01
2022-08-01T14:21:40.010Z,45.16
2022-08-01T14:26:03.659Z,45.46
2022-08-01T14:30:08.057Z,45.84
2022-08-01T14:34:09.926Z,46.24
2022-08-01T14:38:11.455Z,46.87
2022-08-01T14:42:23.200Z,46.30
2022-08-01T14:46:24.684Z,46.59
2022-08-01T14:50:27.658Z,46.59
2022-08-01T14:54:29.589Z,46.95
2022-08-01T14:58:31.493Z,47.32
2022-08-01T15:02:33.009Z,47.92
2022-08-01T15:06:34.533Z,47.52
2022-08-01T15:10:36.041Z,48.46
2022-08-01T15:14:49.385Z,48.07
2022-08-01T15:18:50.775Z,48.75
2022-08-01T15:22:52.846Z,48.25
2022-08-01T15:26:54.430Z,48.30
2022-08-01T15:30:55.909Z,47.84
2022-08-01T15:34:57.733Z,47.36
2022-08-01T15:38:59.242Z,46.37
2022-08-01T15:43:01.099Z,46.80
2022-08-01T15:47:04.129Z,46.06
2022-08-01T15:51:05.823Z,46.48
2022-08-01T15:55:08.186Z,46.86
2022-08-01T15:59:09.842Z,46.76
2022-08-01T16:03:11.365Z,46.88
2022-08-01T16:07:12.971Z,46.91
2022-08-01T16:11:14.733Z,46.99
2022-08-01T16:15:16.510Z,47.19
2022-08-01T16:19:19.442Z,47.91
2022-08-01T16:23:21.217Z,48.06
2022-08-01T16:27:27.071Z,48.17
2022-08-01T16:31:36.641Z,48.52
2022-08-01T16:35:45.189Z,48.38
2022-08-01T16:39:48.289Z,48.57
2022-08-01T16:43:53.848Z,49.19
2022-08-01T16:47:56.841Z,48.86
2022-08-01T16:51:58.243Z,49.41
2022-08-01T16:56:00.090Z,49.88
2022-08-01T17:00:01.822Z,49.50
2022-08-01T17:04:03.429Z,49.89
2022-08-01T17:08:06.434Z,50.00
2022-08-01T17:12:08.539Z,50.72
2022-08-01T17:16:11.576Z,51.12
2022-08-01T17:20:13.082Z,51.35
2022-08-01T17:24:16.727Z,51.61
2022-08-01T17:28:18.337Z,52.54
2022-08-01T17:32:19.902Z,51.41
2022-08-01T17:36:21.474Z,52.29
2022-08-01T17:40:39.780Z,52.02
2022-08-01T17:44:41.837Z,52.17
2022-08-01T17:48:50.823Z,52.50
2022-08-01T17:52:52.417Z,52.76
2022-08-01T17:56:53.954Z,53.17
2022-08-01T18:00:55.366Z,52.90
2022-08-01T18:04:56.797Z,52.96
2022-08-01T18:08:59.710Z,53.79
2022-08-01T18:13:04.045Z,53.13
2022-08-01T18:17:08.281Z,54.26
2022-08-01T18:21:12.957Z,54.01
2022-08-01T18:25:14.805Z,55.74
2022-08-01T18:29:16.592Z,54.60
2022-08-01T18:33:24.906Z,55.37
2022-08-01T18:37:27.502Z,55.49
2022-08-01T18:41:34.426Z,55.84
2022-08-01T18:45:39.545Z,55.34
2022-08-01T18:49:43.973Z,57.00
2022-08-01T18:53:47.016Z,57.38
2022-08-01T18:57:48.574Z,59.06
2022-08-01T19:01:50.125Z,57.79
2022-08-01T19:05:51.682Z,58.11
2022-08-01T19:09:53.161Z,58.73
2022-08-01T19:13:55.418Z,60.34
2022-08-01T19:17:56.944Z,60.91
2022-08-01T19:21:58.449Z,62.01
2022-08-01T19:26:04.199Z,61.98
2022-08-01T19:30:07.096Z,62.13
2022-08-01T19:34:12.299Z,63.91
2022-08-01T19:38:15.196Z,64.07
2022-08-01T19:42:17.837Z,64.37
2022-08-01T19:46:19.696Z,64.78
2022-08-01T19:50:21.320Z,65.06
2022-08-01T19:54:29.798Z,64.97
2022-08-01T19:58:33.545Z,65.54
2022-08-01T20:02:36.482Z,66.30
2022-08-01T20:06:38.362Z,67.09
2022-08-01T20:10:41.029Z,67.51
2022-08-01T20:14:43.911Z,67.72
2022-08-01T20:18:45.397Z,68.17
2022-08-01T20:22:49.651Z,68.18
2022-08-01T20:26:54.573Z,68.23
2022-08-01T20:31:03.511Z,69.03
2022-08-01T20:35:08.437Z,70.08
2022-08-01T20:39:13.235Z,69.66
2022-08-01T20:43:21.226Z,70.05
2022-08-01T20:47:24.384Z,70.34
2022-08-01T20:51:27.641Z,70.56
2022-08-01T20:55:41.082Z,71.29
2022-08-01T20:59:55.421Z,71.84
2022-08-01T21:04:16.804Z,72.21
2022-08-01T21:08:42.809Z,72.55
2022-08-01T21:12:50.464Z,72.77
2022-08-01T21:17:00.190Z,73.40
2022-08-01T21:21:10.378Z,73.66
2022-08-01T21:25:17.798Z,73.69
2022-08-01T21:29:22.376Z,74.39
2022-08-01T21:33:26.429Z,74.62
2022-08-01T21:37:30.902Z,74.66
2022-08-01T21:42:04.141Z,74.69
2022-08-01T21:45:57.897Z,74.81
2022-08-01T21:50:02.430Z,75.30
2022-08-01T21:54:15.661Z,75.87
2022-08-01T21:58:42.095Z,76.19
2022-08-01T22:03:28.677Z,76.42
2022-08-01T22:07:34.793Z,77.09
2022-08-01T22:11:37.876Z,77.55
2022-08-01T22:15:59.911Z,77.94
2022-08-01T22:20:03.128Z,77.96
2022-08-01T22:24:06.565Z,78.14
2022-08-01T22:28:10.238Z,78.62
2022-08-01T22:32:14.661Z,78.62
2022-08-01T22:36:17.091Z,78.90
2022-08-01T22:40:18.506Z,79.16
2022-08-01T22:44:30.266Z,79.52
2022-08-01T22:48:41.461Z,80.18
2022-08-01T22:52:55.178Z,80.16
2022-08-01T22:57:01.283Z,80.07
2022-08-01T23:01:06.540Z,80.81
2022-08-01T23:05:12.014Z,80.90
2022-08-01T23:09:14.554Z,81.30
2022-08-01T23:13:17.473Z,81.39
2022-08-01T23:17:28.918Z,81.73
2022-08-01T23:21:59.027Z,82.90
2022-08-01T23:26:23.722Z,82.56
2022-08-01T23:30:27.952Z,82.82
2022-08-01T23:34:29.422Z,82.96
2022-08-01T23:38:30.926Z,83.32
2022-08-01T23:42:32.489Z,83.22
2022-08-01T23:46:33.898Z,82.67
2022-08-01T23:50:35.622Z,82.02
2022-08-01T23:54:37.269Z,82.35
2022-08-01T23:58:39.166Z,82.32
